Hot Springs, Arkansas
Current Conditions -  °F | °C
As of 3:53 AM on Monday 26 Jan 2015 (Local Time) from KHOT Reporting Station
Scattered Clouds Scattered Clouds  
Wind Chill: 42°   Ceiling: Unl
Heat Index: 42°   Visibility: 10mi
Dew Point: 31°   Wind: 3mph
Humidity: 65%   Direction: NA
Pressure: 30.1"   Gusts: NA
Location:  34.51°N, 93.05°W
Report Text: KHOT 260953Z AUTO VRB03KT 10SM SCT031 06/M01 A3010 RMK AO2 SLP194 T00561006
Loading
Personal Weather Stations






























Interactive Weather Map New forecast layout! Learn more

10-Day Weather Forecast

Advertisements
Track Severe Weather on mobile